Time,TemperatureF,DewpointF,PressureIn,WindDirection,WindDirectionDegrees,WindSpeedMPH,WindSpeedGustMPH,Humidity,HourlyPrecipIn,Conditions,Clouds,dailyrainin,SolarRadiationWatts/m^2,SoftwareType,DateUTC
2013-01-20 00:02:00,63.0,13.0,-100.00,SE,124,6.0,18.0,14,0.00,,,0.00,0.000000,,2013-01-20 10:02:00,
2013-01-20 00:12:00,63.0,13.0,-100.00,SE,124,6.0,18.0,14,0.00,,,0.00,0.000000,,2013-01-20 10:12:00,
2013-01-20 00:22:00,63.0,13.0,-100.00,SE,124,6.0,18.0,14,0.00,,,0.00,0.000000,,2013-01-20 10:22:00,
2013-01-20 00:32:00,63.0,13.0,-100.00,SE,124,6.0,18.0,14,0.00,,,0.00,0.000000,,2013-01-20 10:32:00,
2013-01-20 00:52:00,60.0,11.0,-100.00,SE,129,6.0,13.0,14,0.00,,,0.00,0.000000,,2013-01-20 10:52:00,
2013-01-20 01:02:00,60.0,11.0,-100.00,SE,129,6.0,13.0,14,0.00,,,0.00,0.000000,,2013-01-20 11:02:00,
2013-01-20 01:12:00,60.0,11.0,-100.00,SE,129,6.0,13.0,14,0.00,,,0.00,0.000000,,2013-01-20 11:12:00,
2013-01-20 01:22:00,60.0,11.0,-100.00,SE,129,6.0,13.0,14,0.00,,,0.00,0.000000,,2013-01-20 11:22:00,
2013-01-20 01:32:00,60.0,11.0,-100.00,SE,129,6.0,13.0,14,0.00,,,0.00,0.000000,,2013-01-20 11:32:00,
2013-01-20 01:53:00,61.0,8.0,-100.00,ESE,115,6.0,13.0,12,0.00,,,0.00,0.000000,,2013-01-20 11:53:00,
2013-01-20 02:03:00,61.0,8.0,-100.00,ESE,115,6.0,13.0,12,0.00,,,0.00,0.000000,,2013-01-20 12:03:00,
2013-01-20 02:12:00,61.0,8.0,-100.00,ESE,115,6.0,13.0,12,0.00,,,0.00,0.000000,,2013-01-20 12:12:00,
2013-01-20 02:22:00,61.0,8.0,-100.00,ESE,115,6.0,13.0,12,0.00,,,0.00,0.000000,,2013-01-20 12:22:00,
2013-01-20 02:32:00,61.0,8.0,-100.00,ESE,115,6.0,13.0,12,0.00,,,0.00,0.000000,,2013-01-20 12:32:00,
2013-01-20 02:53:00,62.0,11.0,-100.00,ESE,119,4.0,14.0,13,0.00,,,0.00,0.000000,,2013-01-20 12:53:00,
2013-01-20 03:02:00,62.0,11.0,-100.00,ESE,119,4.0,14.0,13,0.00,,,0.00,0.000000,,2013-01-20 13:02:00,
2013-01-20 03:12:00,62.0,11.0,-100.00,ESE,119,4.0,14.0,13,0.00,,,0.00,0.000000,,2013-01-20 13:12:00,
2013-01-20 03:23:00,62.0,11.0,-100.00,ESE,119,4.0,14.0,13,0.00,,,0.00,0.000000,,2013-01-20 13:23:00,
2013-01-20 03:32:00,62.0,11.0,-100.00,ESE,119,4.0,14.0,13,0.00,,,0.00,0.000000,,2013-01-20 13:32:00,
2013-01-20 03:53:00,60.0,15.0,-100.00,ESE,117,6.0,14.0,17,0.00,,,0.00,0.000000,,2013-01-20 13:53:00,
2013-01-20 04:02:00,60.0,15.0,-100.00,ESE,117,6.0,14.0,17,0.00,,,0.00,0.000000,,2013-01-20 14:02:00,
2013-01-20 04:12:00,60.0,15.0,-100.00,ESE,117,6.0,14.0,17,0.00,,,0.00,0.000000,,2013-01-20 14:12:00,
2013-01-20 04:22:00,60.0,15.0,-100.00,ESE,117,6.0,14.0,17,0.00,,,0.00,0.000000,,2013-01-20 14:22:00,
2013-01-20 04:32:00,60.0,15.0,-100.00,ESE,117,6.0,14.0,17,0.00,,,0.00,0.000000,,2013-01-20 14:32:00,
2013-01-20 04:53:00,60.0,12.0,-100.00,SE,124,6.0,13.0,15,0.00,,,-99.99,0.000000,,2013-01-20 14:53:00,
2013-01-20 05:03:00,60.0,12.0,-100.00,SE,124,6.0,13.0,15,0.00,,,-99.99,0.000000,,2013-01-20 15:03:00,
2013-01-20 05:12:00,60.0,12.0,-100.00,SE,124,6.0,13.0,15,0.00,,,-99.99,0.000000,,2013-01-20 15:12:00,
2013-01-20 05:22:00,60.0,12.0,-100.00,SE,124,6.0,13.0,15,0.00,,,-99.99,0.000000,,2013-01-20 15:22:00,
2013-01-20 05:32:00,60.0,12.0,-100.00,SE,124,6.0,13.0,15,0.00,,,-99.99,0.000000,,2013-01-20 15:32:00,
2013-01-20 06:02:00,62.0,9.0,-100.00,ESE,121,7.0,15.0,12,0.00,,,0.00,0.000000,,2013-01-20 16:02:00,
2013-01-20 06:12:00,62.0,9.0,-100.00,ESE,121,7.0,15.0,12,0.00,,,0.00,0.000000,,2013-01-20 16:12:00,
2013-01-20 06:22:00,62.0,9.0,-100.00,ESE,121,7.0,15.0,12,0.00,,,0.00,0.000000,,2013-01-20 16:22:00,
2013-01-20 06:32:00,62.0,9.0,-100.00,ESE,121,7.0,15.0,12,0.00,,,0.00,0.000000,,2013-01-20 16:32:00,
2013-01-20 07:02:00,62.0,11.0,-100.00,SE,128,7.0,15.0,13,0.00,,,0.00,0.000000,,2013-01-20 17:02:00,
2013-01-20 07:12:00,62.0,11.0,-100.00,SE,128,7.0,15.0,13,0.00,,,0.00,0.000000,,2013-01-20 17:12:00,
2013-01-20 07:22:00,62.0,11.0,-100.00,SE,128,7.0,15.0,13,0.00,,,0.00,0.000000,,2013-01-20 17:22:00,
2013-01-20 07:32:00,62.0,11.0,-100.00,SE,128,7.0,15.0,13,0.00,,,0.00,0.000000,,2013-01-20 17:32:00,
2013-01-20 08:02:00,61.0,10.0,-100.00,ESE,113,5.0,15.0,13,0.00,,,0.00,11.000000,,2013-01-20 18:02:00,
2013-01-20 08:12:00,61.0,10.0,-100.00,ESE,113,5.0,15.0,13,0.00,,,0.00,11.000000,,2013-01-20 18:12:00,
2013-01-20 08:23:00,61.0,10.0,-100.00,ESE,113,5.0,15.0,13,0.00,,,0.00,11.000000,,2013-01-20 18:23:00,
2013-01-20 08:33:00,61.0,10.0,-100.00,ESE,113,5.0,15.0,13,0.00,,,0.00,11.000000,,2013-01-20 18:33:00,
2013-01-20 08:53:00,71.0,19.0,-100.00,SSW,213,2.0,10.0,14,0.00,,,0.00,259.000000,,2013-01-20 18:53:00,
2013-01-20 09:02:00,71.0,19.0,-100.00,SSW,213,2.0,10.0,14,0.00,,,0.00,259.000000,,2013-01-20 19:02:00,
2013-01-20 09:12:00,71.0,19.0,-100.00,SSW,213,2.0,10.0,14,0.00,,,0.00,259.000000,,2013-01-20 19:12:00,
2013-01-20 09:22:00,71.0,19.0,-100.00,SSW,213,2.0,10.0,14,0.00,,,0.00,259.000000,,2013-01-20 19:22:00,
2013-01-20 09:33:00,71.0,19.0,-100.00,SSW,213,2.0,10.0,14,0.00,,,0.00,259.000000,,2013-01-20 19:33:00,
2013-01-20 09:53:00,73.0,33.0,-100.00,NNE,12,8.0,15.0,23,0.00,,,0.00,562.000000,,2013-01-20 19:53:00,
2013-01-20 10:02:00,73.0,33.0,-100.00,NNE,12,8.0,15.0,23,0.00,,,0.00,562.000000,,2013-01-20 20:02:00,
2013-01-20 10:12:00,73.0,33.0,-100.00,NNE,12,8.0,15.0,23,0.00,,,0.00,562.000000,,2013-01-20 20:12:00,
2013-01-20 10:22:00,73.0,33.0,-100.00,NNE,12,8.0,15.0,23,0.00,,,0.00,562.000000,,2013-01-20 20:22:00,
2013-01-20 10:33:00,73.0,33.0,-100.00,NNE,12,8.0,15.0,23,0.00,,,0.00,562.000000,,2013-01-20 20:33:00,
2013-01-20 10:53:00,73.0,44.0,-100.00,NE,37,10.0,20.0,35,0.00,,,0.00,800.000000,,2013-01-20 20:53:00,
2013-01-20 11:03:00,73.0,44.0,-100.00,NE,37,10.0,20.0,35,0.00,,,0.00,800.000000,,2013-01-20 21:03:00,
2013-01-20 11:13:00,73.0,44.0,-100.00,NE,37,10.0,20.0,35,0.00,,,0.00,800.000000,,2013-01-20 21:13:00,
2013-01-20 11:22:00,73.0,44.0,-100.00,NE,37,10.0,20.0,35,0.00,,,0.00,800.000000,,2013-01-20 21:22:00,
2013-01-20 11:33:00,73.0,44.0,-100.00,NE,37,10.0,20.0,35,0.00,,,0.00,800.000000,,2013-01-20 21:33:00,
2013-01-20 12:03:00,71.0,45.0,-100.00,NE,45,12.0,24.0,39,0.00,,,0.00,975.000000,,2013-01-20 22:03:00,
2013-01-20 12:12:00,71.0,45.0,-100.00,NE,45,12.0,24.0,39,0.00,,,0.00,975.000000,,2013-01-20 22:12:00,
2013-01-20 12:22:00,71.0,45.0,-100.00,NE,45,12.0,24.0,39,0.00,,,0.00,975.000000,,2013-01-20 22:22:00,
2013-01-20 12:32:00,71.0,45.0,-100.00,NE,45,12.0,24.0,39,0.00,,,0.00,975.000000,,2013-01-20 22:32:00,
2013-01-20 12:53:00,75.0,47.0,-100.00,NNE,30,9.0,19.0,37,0.00,,,0.00,1055.000000,,2013-01-20 22:53:00,
2013-01-20 13:03:00,75.0,47.0,-100.00,NNE,30,9.0,19.0,37,0.00,,,0.00,1055.000000,,2013-01-20 23:03:00,
2013-01-20 13:12:00,75.0,47.0,-100.00,NNE,30,9.0,19.0,37,0.00,,,0.00,1055.000000,,2013-01-20 23:12:00,
2013-01-20 13:22:00,75.0,47.0,-100.00,NNE,30,9.0,19.0,37,0.00,,,0.00,1055.000000,,2013-01-20 23:22:00,
2013-01-20 13:33:00,75.0,47.0,-100.00,NNE,30,9.0,19.0,37,0.00,,,0.00,1055.000000,,2013-01-20 23:33:00,
2013-01-20 14:03:00,76.0,48.0,-100.00,North,356,7.0,20.0,37,0.00,,,0.00,1040.000000,,2013-01-21 00:03:00,
2013-01-20 14:13:00,76.0,48.0,-100.00,North,356,7.0,20.0,37,0.00,,,0.00,1040.000000,,2013-01-21 00:13:00,
2013-01-20 14:22:00,76.0,48.0,-100.00,North,356,7.0,20.0,37,0.00,,,0.00,1040.000000,,2013-01-21 00:22:00,
2013-01-20 14:32:00,76.0,48.0,-100.00,North,356,7.0,20.0,37,0.00,,,0.00,1040.000000,,2013-01-21 00:32:00,
2013-01-20 14:53:00,75.0,48.0,-100.00,NNE,13,6.0,14.0,39,0.00,,,0.00,929.000000,,2013-01-21 00:53:00,
2013-01-20 15:03:00,75.0,48.0,-100.00,NNE,13,6.0,14.0,39,0.00,,,0.00,929.000000,,2013-01-21 01:03:00,
2013-01-20 15:12:00,75.0,48.0,-100.00,NNE,13,6.0,14.0,39,0.00,,,0.00,929.000000,,2013-01-21 01:12:00,
2013-01-20 15:22:00,75.0,48.0,-100.00,NNE,13,6.0,14.0,39,0.00,,,0.00,929.000000,,2013-01-21 01:22:00,
2013-01-20 15:32:00,75.0,48.0,-100.00,NNE,13,6.0,14.0,39,0.00,,,0.00,929.000000,,2013-01-21 01:32:00,
2013-01-20 16:03:00,75.0,53.0,-100.00,NW,314,6.0,17.0,47,0.00,,,0.00,731.000000,,2013-01-21 02:03:00,
2013-01-20 16:12:00,75.0,53.0,-100.00,NW,314,6.0,17.0,47,0.00,,,0.00,731.000000,,2013-01-21 02:12:00,
2013-01-20 16:22:00,75.0,53.0,-100.00,NW,314,6.0,17.0,47,0.00,,,0.00,731.000000,,2013-01-21 02:22:00,
2013-01-20 16:32:00,75.0,53.0,-100.00,NW,314,6.0,17.0,47,0.00,,,0.00,731.000000,,2013-01-21 02:32:00,
2013-01-20 16:53:00,73.0,54.0,-100.00,WSW,258,7.0,15.0,52,0.00,,,0.00,492.000000,,2013-01-21 02:53:00,
2013-01-20 17:02:00,73.0,54.0,-100.00,WSW,258,7.0,15.0,52,0.00,,,0.00,492.000000,,2013-01-21 03:02:00,
2013-01-20 17:12:00,73.0,54.0,-100.00,WSW,258,7.0,15.0,52,0.00,,,0.00,492.000000,,2013-01-21 03:12:00,
2013-01-20 17:23:00,73.0,54.0,-100.00,WSW,258,7.0,15.0,52,0.00,,,0.00,492.000000,,2013-01-21 03:23:00,
2013-01-20 17:32:00,73.0,54.0,-100.00,WSW,258,7.0,15.0,52,0.00,,,0.00,492.000000,,2013-01-21 03:32:00,
2013-01-20 17:53:00,70.0,52.0,-100.00,NNE,17,5.0,11.0,53,0.00,,,0.00,214.000000,,2013-01-21 03:53:00,
2013-01-20 18:02:00,70.0,52.0,-100.00,NNE,17,5.0,11.0,53,0.00,,,0.00,214.000000,,2013-01-21 04:02:00,
2013-01-20 18:12:00,70.0,52.0,-100.00,NNE,17,5.0,11.0,53,0.00,,,0.00,214.000000,,2013-01-21 04:12:00,
2013-01-20 18:22:00,70.0,52.0,-100.00,NNE,17,5.0,11.0,53,0.00,,,0.00,214.000000,,2013-01-21 04:22:00,
2013-01-20 18:32:00,70.0,52.0,-100.00,NNE,17,5.0,11.0,53,0.00,,,0.00,214.000000,,2013-01-21 04:32:00,
2013-01-20 18:53:00,62.0,51.0,-100.00,ESE,104,6.0,18.0,66,0.00,,,0.00,19.000000,,2013-01-21 04:53:00,
2013-01-20 19:03:00,62.0,51.0,-100.00,ESE,104,6.0,18.0,66,0.00,,,0.00,19.000000,,2013-01-21 05:03:00,
2013-01-20 19:12:00,62.0,51.0,-100.00,ESE,104,6.0,18.0,66,0.00,,,0.00,19.000000,,2013-01-21 05:12:00,
2013-01-20 19:22:00,62.0,51.0,-100.00,ESE,104,6.0,18.0,66,0.00,,,0.00,19.000000,,2013-01-21 05:22:00,
2013-01-20 19:33:00,62.0,51.0,-100.00,ESE,104,6.0,18.0,66,0.00,,,0.00,19.000000,,2013-01-21 05:33:00,
2013-01-20 19:53:00,63.0,48.0,-100.00,East,89,7.0,17.0,57,0.00,,,0.00,0.000000,,2013-01-21 05:53:00,
2013-01-20 20:02:00,63.0,48.0,-100.00,East,89,7.0,17.0,57,0.00,,,0.00,0.000000,,2013-01-21 06:02:00,
2013-01-20 20:12:00,63.0,48.0,-100.00,East,89,7.0,17.0,57,0.00,,,0.00,0.000000,,2013-01-21 06:12:00,
2013-01-20 20:23:00,63.0,48.0,-100.00,East,89,7.0,17.0,57,0.00,,,0.00,0.000000,,2013-01-21 06:23:00,
2013-01-20 20:32:00,63.0,48.0,-100.00,East,89,7.0,17.0,57,0.00,,,0.00,0.000000,,2013-01-21 06:32:00,
2013-01-20 20:53:00,61.0,43.0,-100.00,ESE,103,4.0,16.0,51,0.00,,,0.00,0.000000,,2013-01-21 06:53:00,
2013-01-20 21:03:00,61.0,43.0,-100.00,ESE,103,4.0,16.0,51,0.00,,,0.00,0.000000,,2013-01-21 07:03:00,
2013-01-20 21:12:00,61.0,43.0,-100.00,ESE,103,4.0,16.0,51,0.00,,,0.00,0.000000,,2013-01-21 07:12:00,
2013-01-20 21:22:00,61.0,43.0,-100.00,ESE,103,4.0,16.0,51,0.00,,,0.00,0.000000,,2013-01-21 07:22:00,
2013-01-20 21:32:00,61.0,43.0,-100.00,ESE,103,4.0,16.0,51,0.00,,,0.00,0.000000,,2013-01-21 07:32:00,
2013-01-20 21:53:00,60.0,35.0,-100.00,South,179,5.0,9.0,39,0.00,,,-99.99,0.000000,,2013-01-21 07:53:00,
2013-01-20 22:02:00,60.0,35.0,-100.00,South,179,5.0,9.0,39,0.00,,,-99.99,0.000000,,2013-01-21 08:02:00,
2013-01-20 22:13:00,60.0,35.0,-100.00,South,179,5.0,9.0,39,0.00,,,-99.99,0.000000,,2013-01-21 08:13:00,
2013-01-20 22:22:00,60.0,35.0,-100.00,South,179,5.0,9.0,39,0.00,,,-99.99,0.000000,,2013-01-21 08:22:00,
2013-01-20 22:32:00,60.0,35.0,-100.00,South,179,5.0,9.0,39,0.00,,,-99.99,0.000000,,2013-01-21 08:32:00,
2013-01-20 22:53:00,59.0,45.0,-100.00,ENE,65,8.0,16.0,60,0.00,,,0.00,0.000000,,2013-01-21 08:53:00,
2013-01-20 23:02:00,59.0,45.0,-100.00,ENE,65,8.0,16.0,60,0.00,,,0.00,0.000000,,2013-01-21 09:02:00,
2013-01-20 23:12:00,59.0,45.0,-100.00,ENE,65,8.0,16.0,60,0.00,,,0.00,0.000000,,2013-01-21 09:12:00,
2013-01-20 23:22:00,59.0,45.0,-100.00,ENE,65,8.0,16.0,60,0.00,,,0.00,0.000000,,2013-01-21 09:22:00,
2013-01-20 23:32:00,59.0,45.0,-100.00,ENE,65,8.0,16.0,60,0.00,,,0.00,0.000000,,2013-01-21 09:32:00,
2013-01-20 23:53:00,58.0,49.0,-100.00,East,95,5.0,21.0,72,0.00,,,0.00,0.000000,,2013-01-21 09:53:00,